createdAt,value
2022-08-10T00:00:56.478Z,15.40
2022-08-10T00:03:23.609Z,15.40
2022-08-10T00:05:52.969Z,15.50
2022-08-10T00:08:23.854Z,15.40
2022-08-10T00:10:55.669Z,15.40
2022-08-10T00:13:26.892Z,15.40
2022-08-10T00:15:55.218Z,15.30
2022-08-10T00:18:35.395Z,15.30
2022-08-10T00:21:07.237Z,15.20
2022-08-10T00:23:34.823Z,15.10
2022-08-10T00:26:02.374Z,15.10
2022-08-10T00:28:29.601Z,15.10
2022-08-10T00:30:56.620Z,15.00
2022-08-10T00:33:23.783Z,15.00
2022-08-10T00:35:50.759Z,14.90
2022-08-10T00:38:17.611Z,14.90
2022-08-10T00:40:44.488Z,14.90
2022-08-10T00:43:11.345Z,14.80
2022-08-10T00:45:38.211Z,14.80
2022-08-10T00:48:05.283Z,14.80
2022-08-10T00:50:32.282Z,14.80
2022-08-10T00:52:59.539Z,14.80
2022-08-10T00:55:27.254Z,14.80
2022-08-10T00:57:55.886Z,14.70
2022-08-10T01:00:25.868Z,14.60
2022-08-10T01:02:53.262Z,14.40
2022-08-10T01:05:20.866Z,14.20
2022-08-10T01:08:08.270Z,14.10
2022-08-10T01:10:50.677Z,14.20
2022-08-10T01:13:27.241Z,14.10
2022-08-10T01:16:06.020Z,13.90
2022-08-10T01:18:41.646Z,13.80
2022-08-10T01:21:08.493Z,13.70
2022-08-10T01:23:53.357Z,13.60
2022-08-10T01:26:55.081Z,13.50
2022-08-10T01:29:51.952Z,13.60
2022-08-10T01:32:29.189Z,13.70
2022-08-10T01:35:03.362Z,13.80
2022-08-10T01:37:34.452Z,13.90
2022-08-10T01:40:04.559Z,13.80
2022-08-10T01:42:36.490Z,13.70
2022-08-10T01:45:09.251Z,13.50
2022-08-10T01:47:59.622Z,13.40
2022-08-10T01:50:59.755Z,13.30
2022-08-10T01:53:43.397Z,13.20
2022-08-10T01:56:16.486Z,13.10
2022-08-10T01:58:45.358Z,13.20
2022-08-10T02:01:17.609Z,13.30
2022-08-10T02:04:03.108Z,13.30
2022-08-10T02:06:37.052Z,13.40
2022-08-10T02:09:07.158Z,13.30
2022-08-10T02:11:55.879Z,13.20
2022-08-10T02:14:33.100Z,13.10
2022-08-10T02:17:04.914Z,12.90
2022-08-10T02:19:35.371Z,12.90
2022-08-10T02:22:36.446Z,12.90
2022-08-10T02:24:52.584Z,12.90
2022-08-10T02:27:22.852Z,13.00
2022-08-10T02:29:53.083Z,13.00
2022-08-10T02:32:37.978Z,13.00
2022-08-10T02:35:14.781Z,13.10
2022-08-10T02:37:52.938Z,13.00
2022-08-10T02:45:11.082Z,13.00
2022-08-10T02:45:20.720Z,12.90
2022-08-10T02:46:13.053Z,12.90
2022-08-10T02:48:47.155Z,13.00
2022-08-10T02:51:20.880Z,13.00
2022-08-10T02:54:11.899Z,13.10
2022-08-10T02:56:59.283Z,13.10
2022-08-10T02:59:39.840Z,13.10
2022-08-10T03:02:13.455Z,13.10
2022-08-10T03:04:55.511Z,13.10
2022-08-10T03:07:44.393Z,13.10
2022-08-10T03:10:18.610Z,13.10
2022-08-10T03:12:50.272Z,13.00
2022-08-10T03:15:19.545Z,13.00
2022-08-10T03:17:58.373Z,12.90
2022-08-10T03:20:37.513Z,12.80
2022-08-10T03:23:11.184Z,12.70
2022-08-10T03:25:38.395Z,12.80
2022-08-10T03:28:06.166Z,12.80
2022-08-10T03:30:34.535Z,12.70
2022-08-10T03:33:04.449Z,12.70
2022-08-10T03:35:31.994Z,12.70
2022-08-10T03:38:00.395Z,12.60
2022-08-10T03:40:45.197Z,12.60
2022-08-10T03:43:24.124Z,12.50
2022-08-10T03:45:57.970Z,12.50
2022-08-10T03:48:44.659Z,12.50
2022-08-10T03:51:18.676Z,12.60
2022-08-10T03:54:02.843Z,12.50
2022-08-10T03:56:37.879Z,12.60
2022-08-10T03:59:07.242Z,12.60
2022-08-10T04:02:47.140Z,12.60
2022-08-10T04:04:24.731Z,12.60
2022-08-10T04:06:55.700Z,12.60
2022-08-10T04:09:43.048Z,12.50
2022-08-10T04:12:15.879Z,12.30
2022-08-10T04:14:51.431Z,12.20
2022-08-10T04:18:02.875Z,12.30
2022-08-10T04:20:35.646Z,12.30
2022-08-10T04:23:07.825Z,12.30
2022-08-10T04:25:36.002Z,12.20
2022-08-10T04:28:03.745Z,12.10
2022-08-10T04:30:32.415Z,12.10
2022-08-10T04:33:02.197Z,12.10
2022-08-10T04:35:29.966Z,12.20
2022-08-10T04:37:58.147Z,12.30
2022-08-10T04:40:30.318Z,12.40
2022-08-10T04:43:10.802Z,12.50
2022-08-10T04:45:50.608Z,12.60
2022-08-10T04:48:43.325Z,12.70
2022-08-10T04:51:18.484Z,12.70
2022-08-10T04:54:05.809Z,12.70
2022-08-10T04:56:35.478Z,12.80
2022-08-10T04:59:02.457Z,12.90
2022-08-10T05:02:12.302Z,12.90
2022-08-10T05:04:37.154Z,13.00
2022-08-10T05:07:05.264Z,13.10
2022-08-10T05:09:32.113Z,13.20
2022-08-10T05:11:59.009Z,13.20
2022-08-10T05:14:25.822Z,13.30
2022-08-10T05:16:52.666Z,13.40
2022-08-10T05:20:01.728Z,13.40
2022-08-10T05:22:06.801Z,13.50
2022-08-10T05:24:33.623Z,13.50
2022-08-10T05:27:09.961Z,13.60
2022-08-10T05:29:37.663Z,13.70
2022-08-10T05:32:05.048Z,13.70
2022-08-10T05:34:31.936Z,13.80
2022-08-10T05:36:58.790Z,14.00
2022-08-10T05:39:32.106Z,14.10
2022-08-10T05:42:01.629Z,14.20
2022-08-10T05:44:29.874Z,14.30
2022-08-10T05:46:56.935Z,14.40
2022-08-10T05:49:24.006Z,14.50
2022-08-10T05:51:51.431Z,14.60
2022-08-10T05:54:18.847Z,14.70
2022-08-10T05:56:53.372Z,14.80
2022-08-10T06:00:30.815Z,14.90
2022-08-10T06:02:31.477Z,15.10
2022-08-10T06:05:19.243Z,15.20
2022-08-10T06:07:54.600Z,15.30
2022-08-10T06:10:31.122Z,15.40
2022-08-10T06:13:30.173Z,15.50
2022-08-10T06:16:05.550Z,15.60
2022-08-10T06:18:33.447Z,15.80
2022-08-10T06:21:01.693Z,16.00
2022-08-10T06:23:32.933Z,16.10
2022-08-10T06:26:10.865Z,16.20
2022-08-10T06:29:07.231Z,16.40
2022-08-10T06:31:48.745Z,16.50
2022-08-10T06:34:24.089Z,16.70
2022-08-10T06:36:53.154Z,16.80
2022-08-10T06:39:37.066Z,17.00
2022-08-10T06:42:51.283Z,17.20
2022-08-10T06:45:30.801Z,17.30
2022-08-10T06:48:05.099Z,17.60
2022-08-10T06:50:59.204Z,17.80
2022-08-10T06:53:53.097Z,18.00
2022-08-10T06:56:37.688Z,18.30
2022-08-10T06:59:21.997Z,18.50
2022-08-10T07:02:17.257Z,18.80
2022-08-10T07:04:54.885Z,19.00
2022-08-10T07:07:26.965Z,19.30
2022-08-10T07:09:57.734Z,19.50
2022-08-10T07:12:26.011Z,19.70
2022-08-10T07:14:55.728Z,19.90
2022-08-10T07:17:24.946Z,20.10
2022-08-10T07:19:57.742Z,20.40
2022-08-10T07:23:27.285Z,20.50
2022-08-10T07:25:19.164Z,20.80
2022-08-10T07:28:00.042Z,21.10
2022-08-10T07:30:33.262Z,21.40
2022-08-10T07:33:01.892Z,22.10
2022-08-10T07:35:37.293Z,23.90
2022-08-10T07:38:16.101Z,26.20
2022-08-10T07:40:44.493Z,28.20
2022-08-10T07:43:13.647Z,29.90
2022-08-10T07:45:40.791Z,31.70
2022-08-10T07:48:13.705Z,32.80
2022-08-10T07:50:41.305Z,33.40
2022-08-10T07:53:17.225Z,33.90
2022-08-10T07:56:04.505Z,35.00
2022-08-10T07:58:49.770Z,35.50
2022-08-10T08:01:23.207Z,35.30
2022-08-10T08:04:05.625Z,35.30
2022-08-10T08:06:40.223Z,35.70
2022-08-10T08:09:07.329Z,36.40
2022-08-10T08:11:37.293Z,37.20
2022-08-10T08:14:07.627Z,37.00
2022-08-10T08:16:37.373Z,37.60
2022-08-10T08:24:10.568Z,38.80
2022-08-10T08:24:42.327Z,37.70
2022-08-10T08:27:12.557Z,37.60
2022-08-10T08:29:42.102Z,38.00
2022-08-10T08:32:09.710Z,38.50
2022-08-10T08:34:43.505Z,38.40
2022-08-10T08:37:11.921Z,39.20
2022-08-10T08:39:46.219Z,39.90
2022-08-10T08:42:39.068Z,40.30
2022-08-10T08:45:27.287Z,38.70
2022-08-10T08:48:09.508Z,38.40
2022-08-10T08:50:57.117Z,38.30
2022-08-10T08:54:01.757Z,39.30
2022-08-10T08:56:33.585Z,39.80
2022-08-10T08:59:11.722Z,40.30
2022-08-10T09:01:56.473Z,39.90
2022-08-10T09:04:52.540Z,40.90
2022-08-10T09:08:00.769Z,40.40
2022-08-10T09:11:00.606Z,40.00
2022-08-10T09:13:46.989Z,41.10
2022-08-10T09:16:47.370Z,41.00
2022-08-10T09:19:35.392Z,40.00
2022-08-10T09:22:31.438Z,39.50
2022-08-10T09:25:07.123Z,40.70
2022-08-10T09:27:45.661Z,40.20
2022-08-10T09:30:25.346Z,39.60
2022-08-10T09:36:20.093Z,39.50
2022-08-10T09:36:32.058Z,40.60
2022-08-10T09:39:08.087Z,41.00
2022-08-10T09:41:41.948Z,41.60
2022-08-10T09:44:30.798Z,41.00
2022-08-10T09:48:02.825Z,38.80
2022-08-10T09:51:34.500Z,37.50
2022-08-10T09:53:56.503Z,38.90
2022-08-10T09:56:47.730Z,39.00
2022-08-10T10:00:01.251Z,39.50
2022-08-10T10:02:30.241Z,38.80
2022-08-10T10:05:29.928Z,38.60
2022-08-10T10:08:18.542Z,36.00
2022-08-10T10:11:16.893Z,35.10
2022-08-10T10:14:12.593Z,33.50
2022-08-10T10:17:03.416Z,34.40
2022-08-10T10:19:57.574Z,34.50
2022-08-10T10:23:01.370Z,36.10
2022-08-10T10:25:50.706Z,37.70
2022-08-10T10:28:59.754Z,39.30
2022-08-10T10:31:50.582Z,40.80
2022-08-10T10:35:14.696Z,40.30
2022-08-10T10:38:01.003Z,38.60
2022-08-10T10:40:37.744Z,39.60
2022-08-10T10:43:35.653Z,40.80
2022-08-10T10:46:23.672Z,41.60
2022-08-10T10:49:12.827Z,42.50
2022-08-10T10:52:10.313Z,42.50
2022-08-10T10:54:58.417Z,40.90
2022-08-10T10:58:00.279Z,40.80
2022-08-10T11:00:26.137Z,42.00
2022-08-10T11:03:34.127Z,43.10
2022-08-10T11:06:45.445Z,42.90
2022-08-10T11:10:03.468Z,39.30
2022-08-10T11:12:26.189Z,38.60
2022-08-10T11:15:09.716Z,36.50
2022-08-10T11:18:03.232Z,36.40
2022-08-10T11:20:39.069Z,37.30
2022-08-10T11:23:41.090Z,38.50
2022-08-10T11:26:25.785Z,38.80
2022-08-10T11:29:01.841Z,38.20
2022-08-10T11:32:21.015Z,38.00
2022-08-10T11:35:17.539Z,37.40
2022-08-10T11:38:34.209Z,37.30
2022-08-10T11:41:05.557Z,36.30
2022-08-10T11:44:24.125Z,35.80
2022-08-10T11:47:10.972Z,35.50
2022-08-10T11:50:10.134Z,35.00
2022-08-10T11:52:57.029Z,35.60
2022-08-10T11:55:34.950Z,36.40
2022-08-10T11:58:31.366Z,36.10
2022-08-10T12:01:08.012Z,35.10
2022-08-10T12:03:38.207Z,34.20
2022-08-10T12:06:08.528Z,34.00
2022-08-10T12:10:05.209Z,35.40
2022-08-10T12:11:26.485Z,36.90
2022-08-10T12:14:20.293Z,36.90
2022-08-10T12:16:51.381Z,35.60
2022-08-10T12:19:59.674Z,34.10
2022-08-10T12:22:50.761Z,33.30
2022-08-10T12:25:56.755Z,33.00
2022-08-10T12:28:50.233Z,32.70
2022-08-10T12:31:31.131Z,32.70
2022-08-10T12:34:11.374Z,33.50
2022-08-10T12:36:42.785Z,33.30
2022-08-10T12:39:15.509Z,32.90
2022-08-10T12:42:07.551Z,32.60
2022-08-10T12:44:43.005Z,32.70
2022-08-10T12:47:14.538Z,32.90
2022-08-10T12:50:23.850Z,32.90
2022-08-10T12:53:00.009Z,32.90
2022-08-10T12:55:39.753Z,31.90
2022-08-10T12:58:57.901Z,31.50
2022-08-10T13:01:18.586Z,31.70
2022-08-10T13:04:21.505Z,32.50
2022-08-10T13:06:49.851Z,33.20
2022-08-10T13:09:25.183Z,34.10
2022-08-10T13:12:35.089Z,34.50
2022-08-10T13:14:50.123Z,35.10
2022-08-10T13:17:39.084Z,35.30
2022-08-10T13:20:18.409Z,34.80
2022-08-10T13:22:48.047Z,35.00
2022-08-10T13:25:31.896Z,35.30
2022-08-10T13:28:35.605Z,35.20
2022-08-10T13:30:54.406Z,35.30
2022-08-10T13:34:36.580Z,34.90
2022-08-10T13:36:20.613Z,34.90
2022-08-10T13:38:49.918Z,35.30
2022-08-10T13:41:18.411Z,34.30
2022-08-10T13:43:54.680Z,34.10
2022-08-10T13:46:23.436Z,34.20
2022-08-10T13:48:53.524Z,34.30
2022-08-10T13:51:56.970Z,34.70
2022-08-10T13:54:18.303Z,35.30
2022-08-10T13:56:47.694Z,35.50
2022-08-10T13:59:16.484Z,35.50
2022-08-10T14:01:50.359Z,35.00
2022-08-10T14:04:19.466Z,33.90
2022-08-10T14:06:56.653Z,33.40
2022-08-10T14:09:32.409Z,32.60
2022-08-10T14:12:00.477Z,32.10
2022-08-10T14:14:29.214Z,31.50
2022-08-10T14:16:57.334Z,31.30
2022-08-10T14:19:27.109Z,31.40
2022-08-10T14:21:55.208Z,31.70
2022-08-10T14:24:28.273Z,32.00
2022-08-10T14:27:14.297Z,32.40
2022-08-10T14:29:47.296Z,32.60
2022-08-10T14:32:17.361Z,32.60
2022-08-10T14:34:50.585Z,32.70
2022-08-10T14:37:38.122Z,32.60
2022-08-10T14:40:14.073Z,32.50
2022-08-10T14:43:01.057Z,32.60
2022-08-10T14:45:39.425Z,32.50
2022-08-10T14:48:17.572Z,32.40
2022-08-10T14:50:54.848Z,32.30
2022-08-10T14:53:26.620Z,32.40
2022-08-10T14:55:58.806Z,32.10
2022-08-10T14:59:06.471Z,31.60
2022-08-10T15:02:00.372Z,31.10
2022-08-10T15:04:28.418Z,30.80
2022-08-10T15:07:11.494Z,30.60
2022-08-10T15:10:00.240Z,30.50
2022-08-10T15:12:33.872Z,30.30
2022-08-10T15:15:02.486Z,30.30
2022-08-10T15:17:37.273Z,30.30
2022-08-10T15:20:21.260Z,30.00
2022-08-10T15:23:31.153Z,29.90
2022-08-10T15:26:07.157Z,29.80
2022-08-10T15:29:24.278Z,29.80
2022-08-10T15:31:35.459Z,29.80
2022-08-10T15:34:22.726Z,29.70
2022-08-10T15:37:39.338Z,29.80
2022-08-10T15:40:27.780Z,30.00
2022-08-10T15:43:24.481Z,29.80
2022-08-10T15:46:00.043Z,29.70
2022-08-10T15:48:31.863Z,29.40
2022-08-10T15:51:05.704Z,29.20
2022-08-10T15:53:50.806Z,28.90
2022-08-10T15:56:38.121Z,28.60
2022-08-10T15:59:16.265Z,28.20
2022-08-10T16:02:04.188Z,28.00
2022-08-10T16:05:11.221Z,27.90
2022-08-10T16:07:46.183Z,28.10
2022-08-10T16:10:26.382Z,28.20
2022-08-10T16:20:57.889Z,28.60
2022-08-10T16:23:41.305Z,28.60
2022-08-10T16:26:28.176Z,28.50
2022-08-10T16:29:19.981Z,28.50
2022-08-10T16:32:03.164Z,28.50
2022-08-10T16:34:39.532Z,28.50
2022-08-10T16:37:56.688Z,28.40
2022-08-10T16:40:35.288Z,28.40
2022-08-10T16:43:30.372Z,28.30
2022-08-10T16:46:17.088Z,28.20
2022-08-10T16:48:50.665Z,28.10
2022-08-10T16:51:30.285Z,28.10
2022-08-10T16:54:08.207Z,28.00
2022-08-10T16:56:48.929Z,27.80
2022-08-10T16:59:34.971Z,27.60
2022-08-10T17:02:06.113Z,27.40
2022-08-10T17:04:48.790Z,27.30
2022-08-10T17:07:34.825Z,27.10
2022-08-10T17:10:20.732Z,26.90
2022-08-10T17:13:02.832Z,26.60
2022-08-10T17:18:36.235Z,26.30
2022-08-10T17:21:21.622Z,26.10
2022-08-10T17:24:00.471Z,26.00
2022-08-10T17:26:37.156Z,25.80
2022-08-10T17:29:57.703Z,25.80
2022-08-10T17:32:31.169Z,25.80
2022-08-10T17:35:03.909Z,25.70
2022-08-10T17:37:47.379Z,25.70
2022-08-10T17:40:24.641Z,25.60
2022-08-10T17:42:58.780Z,25.60
2022-08-10T17:45:48.439Z,25.50
2022-08-10T17:48:34.139Z,25.50
2022-08-10T17:51:25.339Z,25.50
2022-08-10T17:54:01.890Z,25.50
2022-08-10T17:56:48.849Z,25.60
2022-08-10T17:59:31.868Z,25.60
2022-08-10T18:02:05.865Z,25.50
2022-08-10T18:04:48.679Z,25.50
2022-08-10T18:07:19.961Z,25.50
2022-08-10T18:10:21.438Z,25.40
2022-08-10T18:12:54.725Z,25.40
2022-08-10T18:15:44.884Z,25.20
2022-08-10T18:18:27.224Z,25.10
2022-08-10T18:21:13.870Z,25.00
2022-08-10T18:24:16.310Z,24.80
2022-08-10T18:26:51.313Z,24.70
2022-08-10T18:29:25.246Z,24.50
2022-08-10T18:32:25.512Z,24.30
2022-08-10T18:35:03.373Z,24.10
2022-08-10T18:37:50.603Z,23.90
2022-08-10T18:40:36.004Z,23.70
2022-08-10T18:44:06.047Z,23.50
2022-08-10T18:46:19.165Z,23.30
2022-08-10T18:48:57.483Z,23.20
2022-08-10T18:51:46.569Z,23.00
2022-08-10T18:54:38.812Z,22.90
2022-08-10T18:57:52.475Z,22.70
2022-08-10T19:00:44.907Z,22.60
2022-08-10T19:03:53.955Z,22.40
2022-08-10T19:06:52.646Z,22.30
2022-08-10T19:09:48.303Z,22.20
2022-08-10T19:12:30.838Z,22.00
2022-08-10T19:15:13.576Z,21.90
2022-08-10T19:18:05.819Z,21.80
2022-08-10T19:21:06.913Z,21.70
2022-08-10T19:24:24.166Z,21.50
2022-08-10T19:27:06.481Z,21.30
2022-08-10T19:29:47.624Z,21.10
2022-08-10T19:33:22.651Z,21.00
2022-08-10T19:36:25.158Z,20.90
2022-08-10T19:39:50.591Z,20.70
2022-08-10T19:43:59.336Z,20.50
2022-08-10T19:46:55.987Z,20.40
2022-08-10T19:49:44.712Z,20.20
2022-08-10T19:52:36.695Z,20.00
2022-08-10T19:55:35.033Z,19.90
2022-08-10T19:58:36.434Z,19.70
2022-08-10T20:01:13.800Z,19.60
2022-08-10T20:04:20.635Z,19.50
2022-08-10T20:07:19.815Z,19.40
2022-08-10T20:10:23.100Z,19.30
2022-08-10T20:13:21.790Z,19.20
2022-08-10T20:16:15.228Z,19.00
2022-08-10T20:19:10.282Z,18.90
2022-08-10T20:21:54.667Z,18.80
2022-08-10T20:24:41.391Z,18.70
2022-08-10T20:27:58.889Z,18.60
2022-08-10T20:30:20.006Z,18.60
2022-08-10T20:32:53.787Z,18.50
2022-08-10T20:35:31.027Z,18.40
2022-08-10T20:38:39.743Z,18.30
2022-08-10T20:41:19.007Z,18.30
2022-08-10T20:44:15.747Z,18.20
2022-08-10T20:46:54.274Z,18.20
2022-08-10T20:49:38.738Z,18.10
2022-08-10T20:52:07.580Z,17.90
2022-08-10T20:54:46.894Z,17.80
2022-08-10T20:58:02.581Z,17.80
2022-08-10T21:00:54.931Z,17.70
2022-08-10T21:03:53.925Z,17.50
2022-08-10T21:07:18.886Z,17.40
2022-08-10T21:10:20.662Z,17.40
2022-08-10T21:13:10.330Z,17.20
2022-08-10T21:15:55.426Z,17.10
2022-08-10T21:19:10.134Z,17.10
2022-08-10T21:22:11.571Z,16.90
2022-08-10T21:25:29.657Z,16.90
2022-08-10T21:28:44.803Z,16.80
2022-08-10T21:31:32.894Z,16.90
2022-08-10T21:34:40.642Z,17.00
2022-08-10T21:37:46.071Z,17.00
2022-08-10T21:40:40.808Z,17.00
2022-08-10T21:43:59.136Z,17.00
2022-08-10T21:50:27.683Z,16.90
2022-08-10T21:53:43.605Z,16.80
2022-08-10T21:57:17.975Z,16.80
2022-08-10T22:00:22.430Z,16.60
2022-08-10T22:03:12.545Z,16.50
2022-08-10T22:06:09.348Z,16.40
2022-08-10T22:09:06.842Z,16.20
2022-08-10T22:12:01.287Z,16.10
2022-08-10T22:14:50.835Z,16.00
2022-08-10T22:20:53.855Z,15.70
2022-08-10T22:24:02.234Z,15.60
2022-08-10T22:27:11.095Z,15.50
2022-08-10T22:30:22.625Z,15.40
2022-08-10T22:31:25.966Z,15.80
2022-08-10T22:33:46.886Z,15.30
2022-08-10T22:36:51.016Z,15.30
2022-08-10T22:40:10.053Z,15.20
2022-08-10T22:43:11.024Z,15.30
2022-08-10T22:46:08.631Z,15.20
2022-08-10T22:49:00.834Z,15.20
2022-08-10T22:51:37.087Z,15.50
2022-08-10T22:54:32.154Z,15.10
2022-08-10T22:57:20.172Z,15.20
2022-08-10T22:59:47.984Z,15.20
2022-08-10T23:02:33.741Z,15.20
2022-08-10T23:05:10.432Z,15.30
2022-08-10T23:07:51.349Z,15.30
2022-08-10T23:10:21.749Z,15.30
2022-08-10T23:12:56.691Z,15.30
2022-08-10T23:15:48.587Z,15.20
2022-08-10T23:18:45.390Z,15.20
2022-08-10T23:21:15.508Z,15.00
2022-08-10T23:23:44.055Z,14.80
2022-08-10T23:26:12.728Z,14.60
2022-08-10T23:28:58.295Z,14.70
2022-08-10T23:32:01.170Z,14.60
2022-08-10T23:34:26.564Z,14.70
2022-08-10T23:36:56.103Z,14.60
2022-08-10T23:39:39.052Z,14.60
2022-08-10T23:42:14.902Z,14.60
2022-08-10T23:44:53.056Z,14.60
2022-08-10T23:47:23.162Z,14.70
2022-08-10T23:49:54.873Z,14.70
2022-08-10T23:52:23.825Z,14.70
2022-08-10T23:54:55.277Z,14.80
2022-08-10T23:57:25.113Z,14.80
2022-08-10T23:59:57.634Z,14.70
